Terminal Aerodrome Forecast
Issued by NWS Paducah, KY

Home | Current Version | Previous Version | Text Only | Print | Product List | Glossary On
Versions: 1 2 3 4 5 6 7 8 9 10 11 12 13 14 15 16 17
297
FTUS43 KPAH 122320
TAFEVV
TAF
KEVV 122320Z 1300/1324 30005KT P6SM FEW250
     FM130400 00000KT P6SM FEW120
     FM131400 20012G20KT P6SM FEW250
     FM131800 22019G31KT P6SM FEW250
     FM132300 26013G21KT P6SM SCT140=

USA.gov is the U.S. government's official web portal to all federal, state and local government web resources and services.